This is the latest recevied weather packets stored in our database for station/object WK7G. If no packets are shown the sender has not sent any weather packets the latest 10 day(s).
| Time | Temp. | Humidity | Pressure | Rain* | Wind** | Luminosity | Snow |
|---|---|---|---|---|---|---|---|
| 1777747086 | 16.67° C | 30% | 1014.2 hPa | 0 mm | - | 681 W/m² | - |
| 1777746782 | 16.67° C | 30% | 1014.1 hPa | 0 mm | - | 664 W/m² | - |
| 1777746477 | 17.22° C | 28% | 1014.2 hPa | 0 mm | - | 781 W/m² | - |
| 1777746173 | 16.67° C | 31% | 1014.2 hPa | 0 mm | - | 853 W/m² | - |
| 1777745870 | 16.67° C | 31% | 1014.5 hPa | 0 mm | - | 824 W/m² | - |
| 1777745569 | 16.67° C | 30% | 1014.5 hPa | 0 mm | - | 852 W/m² | - |
| 1777745266 | 16.67° C | 34% | 1014.5 hPa | 0 mm | - | 914 W/m² | - |
| 1777744964 | 16.67° C | 30% | 1014.3 hPa | 0 mm | - | 849 W/m² | - |
| 1777744663 | 16.11° C | 31% | 1014.5 hPa | 0 mm | - | 858 W/m² | - |
| 1777744358 | 16.11° C | 30% | 1014.3 hPa | 0 mm | - | 724 W/m² | - |
| 1777744055 | 16.11° C | 29% | 1014.5 hPa | 0 mm | - | 795 W/m² | - |
| 1777743753 | 16.67° C | 26% | 1014.6 hPa | 0 mm | - | 763 W/m² | - |
| 1777743450 | 16.11° C | 28% | 1014.8 hPa | 0 mm | - | 823 W/m² | - |
| 1777743147 | 16.11° C | 29% | 1014.5 hPa | 0 mm | - | 856 W/m² | - |
| 1777742845 | 16.11° C | 30% | 1014.7 hPa | 0 mm | - | 882 W/m² | - |
| 1777742541 | 16.11° C | 29% | 1014.8 hPa | 0 mm | - | 858 W/m² | - |
| 1777742237 | 15.56° C | 33% | 1014.3 hPa | 0 mm | - | 672 W/m² | - |
| 1777741934 | 15.56° C | 30% | 1014.8 hPa | 0 mm | - | 821 W/m² | - |
| 1777741631 | 15.56° C | 31% | 1014.6 hPa | 0 mm | - | 831 W/m² | - |
| 1777741328 | 15.56° C | 32% | 1014.8 hPa | 0 mm | - | 877 W/m² | - |
| 1777741024 | 15.56° C | 32% | 1014.8 hPa | 0 mm | - | 782 W/m² | - |
| 1777740721 | 15.56° C | 33% | 1014.7 hPa | 0 mm | - | 762 W/m² | - |
| 1777740417 | 15.56° C | 33% | 1014.6 hPa | 0 mm | - | 685 W/m² | - |
| 1777740114 | 15° C | 31% | 1014.7 hPa | 0 mm | - | 660 W/m² | - |
| 1777739810 | 15° C | 32% | 1014.8 hPa | 0 mm | - | 721 W/m² | - |
* Rain latest hour (hover to see other rain measurements)
** Current wind speed in m/s (hover to see current wind gust speed)